Time;durP1;ratioP1;P1;durP2;ratioP2;P2;SDS_P1;SDS_P2;PMS_P1;PMS_P2;Temp;Humidity;BMP_temperature;BMP_pressure;BME280_temperature;BME280_humidity;BME280_pressure;Samples;Min_cycle;Max_cycle;Signal;HPM_P1;HPM_P2
2021/04/19 00:01:49;;;;;;;40.15;17.23;;;29.60;82.00;;;;;;5085317;28;20027;-49
2021/04/19 00:04:16;;;;;;;39.17;18.88;;;29.60;82.20;;;;;;5085547;28;20036;-45
2021/04/19 00:06:46;;;;;;;38.17;18.75;;;29.60;82.20;;;;;;5067459;28;20023;-48
2021/04/19 00:09:14;;;;;;;35.47;16.17;;;29.60;82.00;;;;;;5085576;28;20030;-51
2021/04/19 00:11:44;;;;;;;35.58;14.32;;;29.50;81.60;;;;;;5085245;28;20012;-48
2021/04/19 00:14:11;;;;;;;28.80;13.32;;;29.50;81.50;;;;;;5067785;28;20021;-47
2021/04/19 00:16:41;;;;;;;29.65;13.23;;;29.50;81.50;;;;;;5067347;28;20104;-44
2021/04/19 00:19:09;;;;;;;33.53;14.15;;;29.50;81.60;;;;;;5085026;28;20028;-47
2021/04/19 00:21:36;;;;;;;26.65;15.05;;;29.40;81.50;;;;;;5084333;28;20040;-44
2021/04/19 00:24:04;;;;;;;34.05;19.05;;;29.40;81.50;;;;;;5083207;28;20037;-42
2021/04/19 00:26:30;;;;;;;51.30;31.92;;;29.40;81.50;;;;;;5084654;28;20301;-43
2021/04/19 00:28:57;;;;;;;46.47;29.58;;;29.30;81.70;;;;;;5067016;28;20032;-47
2021/04/19 00:31:24;;;;;;;41.88;25.77;;;29.40;81.10;;;;;;5050346;28;20042;-54
2021/04/19 00:33:51;;;;;;;38.22;22.30;;;29.30;81.00;;;;;;5084896;28;20059;-47
2021/04/19 00:36:18;;;;;;;28.58;17.20;;;29.30;80.70;;;;;;5084664;28;20321;-44
2021/04/19 00:38:44;;;;;;;26.95;13.60;;;29.30;80.70;;;;;;5084971;28;20029;-47
2021/04/19 00:41:15;;;;;;;28.42;12.15;;;29.30;80.40;;;;;;5084392;28;20309;-46
2021/04/19 00:43:41;;;;;;;23.58;10.85;;;29.30;80.10;;;;;;5066281;28;20035;-45
2021/04/19 00:46:08;;;;;;;24.58;8.73;;;29.20;79.70;;;;;;5066824;28;20021;-47
2021/04/19 00:48:36;;;;;;;23.70;8.70;;;29.10;79.80;;;;;;5084296;28;20305;-49
2021/04/19 00:51:05;;;;;;;22.02;8.32;;;29.00;79.70;;;;;;5066798;28;20024;-51
2021/04/19 00:53:32;;;;;;;22.50;8.77;;;29.00;79.70;;;;;;5083304;28;20044;-48
2021/04/19 00:55:59;;;;;;;25.83;9.10;;;29.00;79.90;;;;;;5083880;28;20028;-47
2021/04/19 00:58:33;;;;;;;24.02;9.07;;;28.90;80.10;;;;;;5084251;28;20083;-53
2021/04/19 01:01:01;;;;;;;29.48;9.63;;;28.90;80.10;;;;;;5084177;28;20012;-51
2021/04/19 01:03:29;;;;;;;26.45;8.20;;;28.90;80.30;;;;;;5066055;28;20244;-46
2021/04/19 01:05:55;;;;;;;22.45;8.82;;;28.80;80.00;;;;;;5066562;28;20021;-48
2021/04/19 01:08:22;;;;;;;19.55;7.88;;;28.80;80.70;;;;;;5083782;28;20051;-49
2021/04/19 01:10:49;;;;;;;20.42;7.85;;;28.80;80.10;;;;;;5084012;28;20040;-47
2021/04/19 01:13:15;;;;;;;27.77;7.97;;;28.80;80.20;;;;;;5083961;28;20032;-48
2021/04/19 01:15:43;;;;;;;27.20;8.02;;;28.80;80.90;;;;;;5083966;28;20033;-46
2021/04/19 01:18:10;;;;;;;23.08;8.10;;;28.80;80.70;;;;;;5103784;28;20020;-48
2021/04/19 01:20:41;;;;;;;30.25;8.35;;;28.70;80.60;;;;;;5094580;28;20041;-47
2021/04/19 01:23:10;;;;;;;30.90;7.50;;;28.60;80.60;;;;;;5080746;28;20039;-50
2021/04/19 01:25:37;;;;;;;23.15;7.97;;;28.60;80.60;;;;;;5103953;28;20213;-45
2021/04/19 01:28:04;;;;;;;25.70;7.28;;;28.60;80.50;;;;;;5104028;28;20353;-51
2021/04/19 01:30:41;;;;;;;27.80;7.47;;;28.50;80.00;;;;;;5086279;28;20024;-51
2021/04/19 01:33:09;;;;;;;25.60;7.28;;;28.40;79.40;;;;;;5070151;28;20065;-47
2021/04/19 01:35:36;;;;;;;22.13;6.53;;;28.40;79.40;;;;;;5103986;28;20039;-53
2021/04/19 01:38:05;;;;;;;22.00;6.60;;;28.50;79.20;;;;;;5104077;28;20292;-60
2021/04/19 01:40:31;;;;;;;22.33;6.90;;;28.40;79.40;;;;;;5103835;28;20039;-56
2021/04/19 01:42:59;;;;;;;20.40;6.78;;;28.50;78.80;;;;;;5103551;28;20077;-44
2021/04/19 01:45:26;;;;;;;19.08;6.75;;;28.50;78.80;;;;;;5100624;28;20024;-49
2021/04/19 01:47:54;;;;;;;24.23;7.05;;;28.40;78.60;;;;;;5087984;28;20020;-46
2021/04/19 01:50:27;;;;;;;22.00;6.55;;;28.40;79.00;;;;;;5084414;28;20193;-47
2021/04/19 01:52:54;;;;;;;;;;;28.40;79.00;;;;;;5066472;28;20024;-48
2021/04/19 01:55:23;;;;;;;24.67;6.97;;;28.40;79.10;;;;;;5084165;28;19966;-44
2021/04/19 01:58:08;;;;;;;21.67;7.85;;;28.40;79.10;;;;;;5049556;28;20024;-49
2021/04/19 02:00:40;;;;;;;19.48;7.30;;;28.40;78.70;;;;;;5083782;28;20073;-55
2021/04/19 02:03:17;;;;;;;23.23;7.07;;;28.40;78.50;;;;;;5084513;28;20028;-51
2021/04/19 02:06:14;;;;;;;23.77;7.22;;;28.40;78.00;;;;;;5087108;28;20017;-51
2021/04/19 02:09:22;;;;;;;18.20;6.55;;;28.40;77.90;;;;;;5069691;28;20028;-48
2021/04/19 02:12:27;;;;;;;17.77;7.00;;;28.40;77.60;;;;;;5087246;28;20306;-47
2021/04/19 02:15:21;;;;;;;16.95;6.28;;;28.40;77.10;;;;;;5087995;28;20243;-51
2021/04/19 02:18:18;;;;;;;18.50;6.28;;;28.40;77.10;;;;;;5087651;28;20020;-50
2021/04/19 02:21:10;;;;;;;20.02;7.05;;;28.40;77.20;;;;;;5069493;28;20051;-48
2021/04/19 02:23:40;;;;;;;20.08;6.57;;;28.30;77.10;;;;;;5072172;28;20024;-50
2021/04/19 02:26:21;;;;;;;24.30;6.80;;;28.30;77.10;;;;;;5082546;28;20039;-50
2021/04/19 02:29:16;;;;;;;20.48;6.63;;;28.30;77.10;;;;;;5107587;28;20028;-47
2021/04/19 02:32:04;;;;;;;22.70;6.35;;;28.30;77.20;;;;;;5064521;28;20032;-50
2021/04/19 02:34:33;;;;;;;22.60;6.70;;;28.30;77.40;;;;;;5107480;28;20028;-51
2021/04/19 02:37:02;;;;;;;22.38;7.25;;;28.30;77.30;;;;;;5106837;28;20328;-47
2021/04/19 02:39:34;;;;;;;22.17;8.23;;;28.30;77.10;;;;;;5107437;28;20027;-47
2021/04/19 02:42:01;;;;;;;19.45;7.15;;;28.30;77.20;;;;;;5106907;28;20061;-49
2021/04/19 02:44:29;;;;;;;23.15;7.22;;;28.30;77.00;;;;;;5107249;28;20094;-49
2021/04/19 02:46:56;;;;;;;19.40;6.85;;;28.20;76.80;;;;;;5107218;28;20024;-51
2021/04/19 02:49:30;;;;;;;18.65;6.15;;;28.20;77.20;;;;;;5107482;28;20016;-51
2021/04/19 02:52:00;;;;;;;21.13;6.55;;;28.20;76.70;;;;;;5106756;28;20008;-49
2021/04/19 02:54:27;;;;;;;22.30;6.72;;;28.20;76.70;;;;;;5106507;28;20024;-50
2021/04/19 02:56:55;;;;;;;14.45;5.80;;;28.20;76.40;;;;;;5095905;28;20035;-49
2021/04/19 02:59:24;;;;;;;18.35;5.85;;;28.20;76.40;;;;;;5086991;28;20060;-47
2021/04/19 03:01:57;;;;;;;20.17;5.45;;;28.20;76.40;;;;;;5097267;28;20028;-52
2021/04/19 03:04:32;;;;;;;18.08;4.93;;;28.20;76.50;;;;;;5100022;28;20078;-52
2021/04/19 03:07:01;;;;;;;19.40;5.63;;;28.20;76.60;;;;;;5103193;28;20020;-50
2021/04/19 03:09:30;;;;;;;19.15;5.25;;;28.10;76.10;;;;;;5088843;28;20028;-52
2021/04/19 03:12:06;;;;;;;19.58;5.05;;;28.10;76.00;;;;;;5106385;28;20047;-51
2021/04/19 03:14:59;;;;;;;15.50;5.10;;;28.00;76.10;;;;;;5106774;28;20031;-47
2021/04/19 03:17:25;;;;;;;;;;;28.00;76.10;;;;;;5077665;28;20036;-55
2021/04/19 03:20:01;;;;;;;21.60;5.78;;;28.00;76.10;;;;;;5106656;28;20122;-52
2021/04/19 03:22:29;;;;;;;16.17;6.45;;;28.00;76.20;;;;;;5106370;28;20039;-50
2021/04/19 03:24:57;;;;;;;18.45;5.68;;;28.00;76.50;;;;;;5106580;28;20297;-50
2021/04/19 03:27:27;;;;;;;16.50;5.82;;;28.00;76.40;;;;;;5105972;28;20213;-49
2021/04/19 03:29:55;;;;;;;20.35;6.35;;;27.90;76.30;;;;;;5106656;28;20027;-50
2021/04/19 03:32:31;;;;;;;21.33;8.68;;;28.00;76.30;;;;;;5105933;28;20020;-47
2021/04/19 03:35:02;;;;;;;22.95;8.88;;;27.90;76.20;;;;;;5088847;28;20032;-57
2021/04/19 03:37:31;;;;;;;24.00;11.95;;;27.90;76.20;;;;;;5087934;28;20031;-55
2021/04/19 03:40:04;;;;;;;22.10;11.95;;;27.90;76.40;;;;;;5105867;28;20224;-49
2021/04/19 03:42:33;;;;;;;19.33;9.65;;;27.90;76.00;;;;;;5105375;28;20324;-53
2021/04/19 03:45:02;;;;;;;26.85;7.90;;;27.90;76.00;;;;;;5106362;28;20024;-50
2021/04/19 03:47:30;;;;;;;20.45;8.02;;;27.90;75.30;;;;;;5105680;28;20054;-48
2021/04/19 03:50:00;;;;;;;18.02;6.95;;;27.90;75.30;;;;;;5088127;28;20027;-50
2021/04/19 03:52:34;;;;;;;14.30;5.93;;;27.90;74.40;;;;;;5105575;28;20024;-50
2021/04/19 03:55:04;;;;;;;17.58;6.45;;;27.80;74.20;;;;;;5105975;28;20036;-53
2021/04/19 03:57:33;;;;;;;18.75;5.03;;;27.80;74.30;;;;;;5088158;28;20313;-48
2021/04/19 04:00:08;;;;;;;12.23;5.53;;;27.80;74.30;;;;;;5105488;28;20095;-55
2021/04/19 04:02:43;;;;;;;14.23;5.55;;;27.80;74.10;;;;;;5106283;28;20023;-49
2021/04/19 04:05:12;;;;;;;19.27;5.85;;;27.80;73.90;;;;;;5105577;28;20032;-48
2021/04/19 04:07:40;;;;;;;21.67;6.50;;;27.80;73.40;;;;;;5105376;28;20023;-52
2021/04/19 04:10:08;;;;;;;15.80;5.38;;;27.80;73.60;;;;;;5105572;28;20028;-55
2021/04/19 04:12:38;;;;;;;17.30;6.30;;;27.80;73.50;;;;;;5087445;28;20020;-51
2021/04/19 04:15:07;;;;;;;17.63;5.47;;;27.70;73.40;;;;;;5105753;28;20308;-51
2021/04/19 04:17:33;;;;;;;13.35;5.13;;;27.70;73.80;;;;;;5087382;28;20020;-47
2021/04/19 04:20:00;;;;;;;15.05;4.97;;;27.70;73.30;;;;;;5105582;28;20200;-50
2021/04/19 04:22:27;;;;;;;14.82;4.43;;;27.70;73.20;;;;;;5105187;28;20320;-50
2021/04/19 04:24:54;;;;;;;15.27;4.78;;;27.70;72.80;;;;;;5105087;28;20028;-46
2021/04/19 04:27:21;;;;;;;13.23;4.40;;;27.70;72.70;;;;;;5105197;28;20012;-52
2021/04/19 04:29:48;;;;;;;9.55;4.68;;;27.70;72.70;;;;;;5087561;28;20032;-52
2021/04/19 04:32:14;;;;;;;9.05;4.68;;;27.70;72.20;;;;;;5105096;28;20321;-47
2021/04/19 04:34:41;;;;;;;11.77;4.28;;;27.70;72.00;;;;;;5105476;28;20032;-46
2021/04/19 04:37:08;;;;;;;13.18;4.85;;;27.70;71.80;;;;;;5105110;28;20024;-47
2021/04/19 04:39:35;;;;;;;15.13;4.35;;;27.60;71.30;;;;;;5105398;28;20035;-48
2021/04/19 04:42:05;;;;;;;14.25;4.00;;;27.60;71.20;;;;;;5104974;28;20331;-45
2021/04/19 04:44:36;;;;;;;14.88;4.55;;;27.60;71.50;;;;;;5105064;28;20059;-51
2021/04/19 04:47:06;;;;;;;14.13;4.07;;;27.60;71.30;;;;;;5104893;28;20050;-56
2021/04/19 04:49:47;;;;;;;12.90;4.13;;;27.60;70.60;;;;;;5104997;28;20019;-51
2021/04/19 04:52:15;;;;;;;12.55;4.32;;;27.60;70.60;;;;;;5104492;28;20020;-47
2021/04/19 04:54:47;;;;;;;12.43;4.07;;;27.60;70.70;;;;;;5105144;28;20301;-49
2021/04/19 04:57:20;;;;;;;15.32;4.43;;;27.60;70.90;;;;;;5104415;28;20061;-50
2021/04/19 04:59:50;;;;;;;12.10;4.05;;;27.60;70.70;;;;;;5105010;28;20231;-49
2021/04/19 05:02:20;;;;;;;12.90;3.75;;;27.60;70.90;;;;;;5104625;28;20027;-47
2021/04/19 05:04:49;;;;;;;13.57;4.38;;;27.60;70.70;;;;;;5104743;28;20039;-54
2021/04/19 05:07:16;;;;;;;11.75;4.22;;;27.50;70.60;;;;;;5104484;28;20308;-46
2021/04/19 05:09:48;;;;;;;11.95;3.67;;;27.50;70.40;;;;;;5104299;28;20035;-47
2021/04/19 05:12:16;;;;;;;10.77;4.15;;;27.50;70.20;;;;;;5104499;28;20012;-48
2021/04/19 05:15:00;;;;;;;12.52;4.03;;;27.50;69.60;;;;;;5104729;28;20100;-48
2021/04/19 05:17:27;;;;;;;11.93;3.47;;;27.50;69.50;;;;;;5104491;28;20217;-47
2021/04/19 05:19:54;;;;;;;13.20;4.10;;;27.50;69.50;;;;;;5104611;28;20028;-52
2021/04/19 05:22:21;;;;;;;11.15;3.97;;;27.50;69.60;;;;;;5104173;28;20035;-50
2021/04/19 05:24:49;;;;;;;18.13;3.83;;;27.50;69.40;;;;;;5104580;28;20034;-48
2021/04/19 05:27:16;;;;;;;12.63;3.92;;;27.50;69.40;;;;;;5104058;28;20309;-45
2021/04/19 05:29:43;;;;;;;15.43;3.90;;;27.50;69.00;;;;;;5104651;28;20031;-56
2021/04/19 05:32:13;;;;;;;9.40;3.10;;;27.50;69.10;;;;;;5104247;28;20016;-53
2021/04/19 05:34:40;;;;;;;13.52;4.00;;;27.40;68.90;;;;;;5104529;28;20024;-45
2021/04/19 05:37:11;;;;;;;10.95;3.60;;;27.40;69.00;;;;;;5104126;28;20193;-57
2021/04/19 05:39:38;;;;;;;9.98;3.97;;;27.40;69.00;;;;;;5104020;28;20043;-52
2021/04/19 05:42:06;;;;;;;15.13;5.00;;;27.40;69.00;;;;;;5103951;28;20095;-49
2021/04/19 05:44:33;;;;;;;12.13;5.05;;;27.40;69.40;;;;;;5104232;28;20035;-50
2021/04/19 05:46:59;;;;;;;19.35;6.85;;;27.30;69.60;;;;;;5104167;28;20061;-53
2021/04/19 05:49:26;;;;;;;18.50;6.93;;;27.30;70.10;;;;;;5104366;28;20016;-54
2021/04/19 05:51:57;;;;;;;13.98;7.20;;;27.30;70.40;;;;;;5104349;28;20111;-47
2021/04/19 05:54:24;;;;;;;21.10;7.65;;;27.20;70.60;;;;;;5104550;28;20031;-53
2021/04/19 05:57:28;;;;;;;18.80;7.03;;;27.20;71.00;;;;;;5103969;28;20020;-51
2021/04/19 05:59:57;;;;;;;18.52;6.90;;;27.20;70.60;;;;;;5104270;28;20025;-53
2021/04/19 06:02:46;;;;;;;15.70;7.70;;;27.20;70.60;;;;;;5103808;28;20366;-47
2021/04/19 06:05:32;;;;;;;18.75;6.47;;;27.20;70.80;;;;;;5104078;28;20043;-50
2021/04/19 06:08:23;;;;;;;16.67;6.75;;;27.20;70.70;;;;;;5103757;28;20026;-55
2021/04/19 06:11:32;;;;;;;17.83;5.93;;;27.20;70.60;;;;;;5085622;28;20016;-48
2021/04/19 06:14:01;;;;;;;14.38;4.95;;;27.10;70.80;;;;;;5090723;28;20288;-49
2021/04/19 06:16:30;;;;;;;13.60;4.82;;;27.10;70.60;;;;;;5103686;28;20024;-51
2021/04/19 06:18:58;;;;;;;12.60;4.55;;;27.10;70.50;;;;;;5103838;28;20308;-50
2021/04/19 06:21:25;;;;;;;13.70;4.53;;;27.10;70.70;;;;;;5103374;28;20056;-49
2021/04/19 06:23:52;;;;;;;14.48;4.85;;;27.10;70.80;;;;;;5103897;28;20028;-48
2021/04/19 06:26:18;;;;;;;12.38;4.38;;;27.10;70.70;;;;;;5103718;28;20061;-48
2021/04/19 06:28:49;;;;;;;13.60;4.35;;;27.10;70.60;;;;;;5103897;28;20042;-49
2021/04/19 06:31:18;;;;;;;11.38;4.40;;;27.10;70.60;;;;;;5103147;28;20020;-50
2021/04/19 06:34:02;;;;;;;14.40;4.55;;;27.10;70.60;;;;;;5103751;28;20036;-44
2021/04/19 06:36:38;;;;;;;12.63;3.70;;;27.00;70.00;;;;;;5103736;28;20350;-50
2021/04/19 06:39:06;;;;;;;16.77;4.07;;;27.00;70.40;;;;;;5103691;28;20309;-49
2021/04/19 06:41:34;;;;;;;17.17;4.90;;;27.00;70.50;;;;;;5103595;28;20035;-46
2021/04/19 06:44:02;;;;;;;20.10;4.45;;;27.00;70.60;;;;;;5103538;28;20030;-46
2021/04/19 06:46:33;;;;;;;13.07;4.13;;;27.00;70.80;;;;;;5103255;28;20243;-55
2021/04/19 06:49:00;;;;;;;12.65;5.18;;;27.00;70.90;;;;;;5103653;28;20032;-56
2021/04/19 06:51:27;;;;;;;16.13;5.40;;;26.90;71.00;;;;;;5104520;28;20320;-46
2021/04/19 06:53:58;;;;;;;16.02;5.90;;;26.90;71.10;;;;;;5106807;28;20028;-47
2021/04/19 06:56:28;;;;;;;11.63;4.67;;;26.90;71.20;;;;;;5107269;28;20254;-53
2021/04/19 06:58:57;;;;;;;11.23;4.65;;;26.90;71.10;;;;;;5107103;28;20087;-57
2021/04/19 07:01:27;;;;;;;11.65;4.55;;;26.90;71.20;;;;;;5106769;28;20023;-51
2021/04/19 07:04:05;;;;;;;10.65;4.30;;;26.90;71.20;;;;;;5106943;28;20028;-54
2021/04/19 07:06:36;;;;;;;12.57;4.28;;;26.90;71.00;;;;;;5106583;28;20194;-50
2021/04/19 07:09:08;;;;;;;8.23;3.63;;;26.90;70.80;;;;;;5106935;28;20300;-53
2021/04/19 07:11:39;;;;;;;10.75;3.80;;;26.90;70.80;;;;;;5106650;28;20040;-54
2021/04/19 07:14:08;;;;;;;10.45;4.28;;;26.90;70.60;;;;;;5106895;28;20081;-56
2021/04/19 07:16:35;;;;;;;15.38;4.15;;;26.90;70.40;;;;;;5106467;28;20027;-48
2021/04/19 07:19:05;;;;;;;14.07;4.30;;;26.80;70.20;;;;;;5106580;28;20024;-49
2021/04/19 07:21:33;;;;;;;13.20;3.90;;;26.80;70.20;;;;;;5106246;28;20368;-41
2021/04/19 07:24:02;;;;;;;13.63;3.70;;;26.80;70.00;;;;;;5106486;28;20039;-49
2021/04/19 07:26:30;;;;;;;14.48;4.13;;;26.90;70.20;;;;;;5106187;28;20070;-45
2021/04/19 07:28:57;;;;;;;12.23;4.00;;;26.80;70.10;;;;;;5106525;28;20095;-53
2021/04/19 07:31:23;;;;;;;13.50;4.10;;;26.80;70.10;;;;;;5106409;28;20020;-56
2021/04/19 07:33:50;;;;;;;16.38;3.95;;;26.80;70.10;;;;;;5106414;28;20073;-47
2021/04/19 07:36:27;;;;;;;11.35;4.10;;;26.80;70.10;;;;;;5106267;28;20020;-47
2021/04/19 07:38:55;;;;;;;9.73;3.72;;;26.80;71.00;;;;;;5106035;28;20035;-57
2021/04/19 07:41:43;;;;;;;14.13;4.13;;;26.80;70.40;;;;;;5106092;28;20038;-60
2021/04/19 07:44:10;;;;;;;11.45;3.78;;;26.80;70.60;;;;;;5105845;28;20044;-51
2021/04/19 07:46:36;;;;;;;14.18;3.97;;;26.80;70.80;;;;;;5106208;28;20016;-55
2021/04/19 07:49:08;;;;;;;14.93;4.78;;;26.80;70.70;;;;;;5106184;28;20020;-55
2021/04/19 07:51:39;;;;;;;20.38;4.18;;;26.80;70.90;;;;;;5105764;28;20020;-50
2021/04/19 07:54:17;;;;;;;13.82;4.38;;;26.70;71.00;;;;;;5106199;28;20039;-49
2021/04/19 07:56:46;;;;;;;12.57;3.92;;;26.70;71.10;;;;;;5105743;28;20016;-48
2021/04/19 07:59:31;;;;;;;11.73;3.95;;;26.70;71.20;;;;;;5106000;28;20027;-47
2021/04/19 08:02:16;;;;;;;13.48;4.32;;;26.70;71.30;;;;;;5105375;28;20028;-51
2021/04/19 08:04:50;;;;;;;11.65;4.13;;;26.70;71.30;;;;;;5105922;28;20036;-48
2021/04/19 08:07:25;;;;;;;15.25;3.95;;;26.70;71.40;;;;;;5087625;28;20022;-50
2021/04/19 08:10:07;;;;;;;12.68;4.03;;;26.70;71.70;;;;;;5106033;28;20020;-52
2021/04/19 08:12:48;;;;;;;14.43;4.20;;;26.70;71.70;;;;;;5105484;28;20016;-59
2021/04/19 08:15:19;;;;;;;14.60;4.30;;;26.60;71.80;;;;;;5105402;28;20310;-53
2021/04/19 08:17:46;;;;;;;10.10;3.73;;;26.60;71.90;;;;;;5105507;28;20312;-54
2021/04/19 08:20:16;;;;;;;14.05;4.43;;;26.60;72.00;;;;;;5105032;28;20041;-48
2021/04/19 08:22:44;;;;;;;16.00;4.40;;;26.60;72.00;;;;;;5105123;28;20016;-50
2021/04/19 08:25:12;;;;;;;15.38;4.25;;;26.60;72.30;;;;;;5105253;28;20016;-50
2021/04/19 08:27:41;;;;;;;12.45;4.05;;;26.60;72.10;;;;;;5105116;28;20073;-55
2021/04/19 08:30:10;;;;;;;13.90;4.20;;;26.60;72.10;;;;;;5087186;28;20020;-52
2021/04/19 08:32:37;;;;;;;9.85;4.05;;;26.60;72.30;;;;;;5105068;28;20023;-51
2021/04/19 08:35:06;;;;;;;18.40;4.35;;;26.60;72.30;;;;;;5105587;28;20257;-49
2021/04/19 08:37:33;;;;;;;13.18;4.50;;;26.60;72.00;;;;;;5105155;28;20023;-54
2021/04/19 08:40:02;;;;;;;16.10;4.85;;;26.60;72.10;;;;;;5105295;28;20032;-51
2021/04/19 08:42:34;;;;;;;12.27;4.05;;;26.60;71.90;;;;;;5104795;28;20372;-46
2021/04/19 08:45:02;;;;;;;9.68;3.95;;;26.60;71.80;;;;;;5105216;28;20043;-46
2021/04/19 08:47:30;;;;;;;13.80;3.97;;;26.60;71.50;;;;;;5104793;28;20028;-51
2021/04/19 08:50:02;;;;;;;19.35;4.68;;;26.60;71.80;;;;;;5105177;28;20039;-47
2021/04/19 08:52:29;;;;;;;13.25;4.50;;;26.50;71.70;;;;;;5105117;28;20023;-52
2021/04/19 08:54:56;;;;;;;11.88;4.53;;;26.50;71.90;;;;;;5104922;28;20028;-53
2021/04/19 08:57:24;;;;;;;11.52;4.32;;;26.50;72.00;;;;;;5104657;28;20340;-51
2021/04/19 08:59:52;;;;;;;12.95;4.18;;;26.50;72.10;;;;;;5104960;28;20036;-47
2021/04/19 09:02:21;;;;;;;11.75;4.45;;;26.50;72.00;;;;;;5104321;28;20316;-51
2021/04/19 09:05:07;;;;;;;14.13;4.45;;;26.50;72.00;;;;;;5104868;28;20058;-50
2021/04/19 09:07:35;;;;;;;16.77;4.13;;;26.50;71.90;;;;;;5104418;28;20044;-48
2021/04/19 09:10:03;;;;;;;15.32;5.30;;;26.50;71.70;;;;;;5105114;28;20023;-53
2021/04/19 09:12:31;;;;;;;14.70;5.07;;;26.50;71.90;;;;;;5104342;28;20016;-57
2021/04/19 09:15:32;;;;;;;12.63;4.03;;;26.50;71.80;;;;;;5104240;28;20028;-50
2021/04/19 09:18:10;;;;;;;15.85;4.50;;;26.50;71.70;;;;;;5104070;28;20019;-48
2021/04/19 09:20:49;;;;;;;18.10;4.85;;;26.50;71.80;;;;;;5104088;28;20040;-52
2021/04/19 09:23:23;;;;;;;12.98;4.60;;;26.50;71.90;;;;;;5104107;28;20034;-53
2021/04/19 09:25:51;;;;;;;12.63;3.80;;;26.50;72.00;;;;;;5104263;28;20137;-53
2021/04/19 09:28:39;;;;;;;16.45;4.43;;;26.50;72.00;;;;;;5104194;28;20024;-56
2021/04/19 09:31:07;;;;;;;12.95;4.35;;;26.40;72.00;;;;;;5104526;28;20023;-57
2021/04/19 09:33:34;;;;;;;11.80;4.53;;;26.40;72.50;;;;;;5104242;28;20346;-55
2021/04/19 09:36:00;;;;;;;13.43;4.18;;;26.40;72.50;;;;;;5103964;28;20027;-54
2021/04/19 09:38:51;;;;;;;14.80;4.80;;;26.40;72.60;;;;;;5104196;28;20030;-50
2021/04/19 09:41:20;;;;;;;12.23;4.43;;;26.40;72.50;;;;;;5103922;28;20235;-54
2021/04/19 09:43:54;;;;;;;16.48;4.05;;;26.40;72.60;;;;;;5103984;28;20043;-52
2021/04/19 09:46:20;;;;;;;14.85;4.40;;;26.30;72.40;;;;;;5103848;28;20042;-60
2021/04/19 09:48:47;;;;;;;16.88;4.32;;;26.40;72.40;;;;;;5104158;28;20028;-58
2021/04/19 09:51:19;;;;;;;17.42;4.85;;;26.40;72.50;;;;;;5104315;28;20035;-51
2021/04/19 09:54:03;;;;;;;15.37;5.00;;;26.40;72.60;;;;;;5104238;28;20091;-52
2021/04/19 09:56:38;;;;;;;17.23;4.10;;;26.30;72.90;;;;;;5103834;28;20040;-50
2021/04/19 09:59:07;;;;;;;15.80;4.85;;;26.30;72.80;;;;;;5104225;28;20032;-45
2021/04/19 10:01:35;;;;;;;15.27;4.78;;;26.30;72.90;;;;;;5103772;28;20046;-47
2021/04/19 10:04:03;;;;;;;14.10;4.60;;;26.30;73.00;;;;;;5103962;28;20095;-46
2021/04/19 10:06:40;;;;;;;15.20;5.30;;;26.30;73.00;;;;;;5103740;28;20035;-49
2021/04/19 10:09:13;;;;;;;14.98;5.20;;;26.20;73.10;;;;;;5103975;28;20075;-48
2021/04/19 10:12:03;;;;;;;15.07;4.43;;;26.30;73.00;;;;;;5103920;28;20083;-50
2021/04/19 10:14:38;;;;;;;15.60;4.82;;;26.30;72.90;;;;;;5104351;28;20196;-54
2021/04/19 10:17:19;;;;;;;21.65;5.25;;;26.20;73.00;;;;;;5103637;28;20295;-49
2021/04/19 10:19:46;;;;;;;13.73;5.18;;;26.20;72.90;;;;;;5086375;28;20016;-50
2021/04/19 10:22:14;;;;;;;16.83;5.28;;;26.20;72.80;;;;;;5103323;28;20370;-54
2021/04/19 10:24:52;;;;;;;16.60;5.35;;;26.20;72.80;;;;;;5104169;28;20091;-55
2021/04/19 10:27:29;;;;;;;15.32;5.20;;;26.20;72.70;;;;;;5107521;28;20335;-47
2021/04/19 10:30:18;;;;;;;13.40;4.50;;;26.20;72.70;;;;;;5108058;28;20028;-46
2021/04/19 10:32:47;;;;;;;13.38;4.85;;;26.20;72.70;;;;;;5107355;28;20298;-46
2021/04/19 10:35:29;;;;;;;15.90;4.90;;;26.20;72.50;;;;;;5107352;28;20015;-56
2021/04/19 10:37:56;;;;;;;16.05;4.93;;;26.20;72.70;;;;;;5107504;28;20079;-50
2021/04/19 10:40:23;;;;;;;18.20;4.90;;;26.20;72.80;;;;;;5107133;28;20116;-52
2021/04/19 10:42:50;;;;;;;14.07;4.78;;;26.20;72.70;;;;;;5107072;28;20024;-49
2021/04/19 10:45:18;;;;;;;15.68;4.70;;;26.10;72.70;;;;;;5106802;28;20024;-50
2021/04/19 10:47:45;;;;;;;17.13;4.72;;;26.20;72.40;;;;;;5106866;28;20346;-47
2021/04/19 10:50:12;;;;;;;16.75;4.72;;;26.20;72.20;;;;;;5107065;28;20069;-45
2021/04/19 10:52:52;;;;;;;10.10;4.10;;;26.20;72.10;;;;;;5106806;28;20016;-52
2021/04/19 10:55:20;;;;;;;14.93;4.93;;;26.20;72.10;;;;;;5106961;28;20055;-48
2021/04/19 10:57:47;;;;;;;14.38;4.63;;;26.20;71.80;;;;;;5106906;28;20015;-46
2021/04/19 11:00:14;;;;;;;20.55;5.25;;;26.20;71.80;;;;;;5106875;28;20024;-47
2021/04/19 11:02:41;;;;;;;26.52;14.48;;;26.20;71.90;;;;;;5106694;28;20047;-48
2021/04/19 11:05:12;;;;;;;30.35;13.73;;;26.20;71.80;;;;;;5106592;28;20022;-46
2021/04/19 11:07:44;;;;;;;21.45;7.40;;;26.30;72.00;;;;;;5106721;28;20020;-53
2021/04/19 11:10:23;;;;;;;27.38;6.25;;;26.30;71.80;;;;;;5106611;28;20359;-49
2021/04/19 11:13:06;;;;;;;19.48;6.10;;;26.30;71.60;;;;;;5106483;28;20020;-49
2021/04/19 11:15:41;;;;;;;20.77;5.50;;;26.30;71.60;;;;;;5106482;28;20312;-49
2021/04/19 11:18:28;;;;;;;15.82;5.50;;;26.30;71.10;;;;;;5106198;28;20023;-42
2021/04/19 11:20:56;;;;;;;19.10;5.80;;;26.40;71.50;;;;;;5104360;28;20048;-46
2021/04/19 11:23:29;;;;;;;70.28;8.15;;;26.40;70.90;;;;;;5104263;28;20028;-46
2021/04/19 11:26:01;;;;;;;32.47;6.55;;;26.50;70.60;;;;;;5104417;28;20278;-43
2021/04/19 11:28:39;;;;;;;61.78;8.45;;;26.60;70.60;;;;;;5104531;28;20074;-49
2021/04/19 11:31:15;;;;;;;63.10;8.20;;;26.60;70.40;;;;;;5104564;28;20020;-43
2021/04/19 11:33:42;;;;;;;22.35;5.43;;;26.70;70.30;;;;;;5104835;28;20028;-46
2021/04/19 11:36:10;;;;;;;24.60;5.53;;;26.80;69.80;;;;;;5106459;28;20249;-52
2021/04/19 11:38:38;;;;;;;23.27;5.20;;;26.80;69.80;;;;;;5105959;28;20043;-45
2021/04/19 11:41:07;;;;;;;20.10;5.47;;;26.80;69.60;;;;;;5106125;28;20020;-48
2021/04/19 11:43:38;;;;;;;21.42;5.88;;;26.90;69.90;;;;;;5106119;28;20024;-53
2021/04/19 11:46:07;;;;;;;18.58;5.07;;;27.00;69.60;;;;;;5106286;28;20023;-46
2021/04/19 11:48:37;;;;;;;17.70;5.05;;;27.00;69.70;;;;;;5106285;28;20107;-44
2021/04/19 11:51:06;;;;;;;17.13;5.60;;;27.10;69.90;;;;;;5106116;28;20065;-46
2021/04/19 11:53:35;;;;;;;17.77;4.95;;;27.20;70.20;;;;;;5105903;28;20284;-44
2021/04/19 11:56:04;;;;;;;32.25;7.38;;;27.20;70.30;;;;;;5105981;28;20100;-50
2021/04/19 11:58:35;;;;;;;39.25;8.13;;;27.20;70.00;;;;;;5106137;28;20024;-49
2021/04/19 12:01:02;;;;;;;38.28;6.63;;;27.30;69.70;;;;;;5105792;28;20008;-48
2021/04/19 12:03:29;;;;;;;28.20;6.25;;;27.30;69.80;;;;;;5105631;28;20036;-49
2021/04/19 12:05:56;;;;;;;24.33;5.88;;;27.40;70.20;;;;;;5105977;28;20031;-48
2021/04/19 12:08:23;;;;;;;28.63;5.97;;;27.40;70.80;;;;;;5105896;28;20026;-45
2021/04/19 12:10:50;;;;;;;25.25;5.97;;;27.40;70.70;;;;;;5105535;28;20024;-46
2021/04/19 12:13:17;;;;;;;26.33;5.45;;;27.50;70.70;;;;;;5106006;28;20053;-45
2021/04/19 12:15:47;;;;;;;24.73;6.00;;;27.50;70.80;;;;;;5105734;28;20066;-50
2021/04/19 12:18:14;;;;;;;24.50;6.00;;;27.50;70.90;;;;;;5105653;28;20069;-45
2021/04/19 12:20:41;;;;;;;22.10;5.18;;;27.60;71.20;;;;;;5105293;28;20107;-52
2021/04/19 12:23:08;;;;;;;18.30;5.68;;;27.60;71.20;;;;;;5105494;28;20035;-44
2021/04/19 12:25:35;;;;;;;18.38;5.30;;;27.60;71.20;;;;;;5105358;28;20020;-43
2021/04/19 12:28:02;;;;;;;18.80;5.22;;;27.70;71.00;;;;;;5105411;28;20055;-45
2021/04/19 12:30:32;;;;;;;19.15;5.47;;;27.70;71.00;;;;;;5087067;28;20027;-52
2021/04/19 12:32:59;;;;;;;15.10;5.05;;;27.80;71.10;;;;;;5105442;28;20016;-46
2021/04/19 12:35:27;;;;;;;16.60;4.82;;;27.80;71.50;;;;;;5105338;28;20024;-50
2021/04/19 12:37:54;;;;;;;16.75;4.63;;;27.80;71.40;;;;;;5105029;28;20061;-51
2021/04/19 12:40:22;;;;;;;13.88;4.75;;;27.90;71.90;;;;;;5105460;28;20027;-46
2021/04/19 12:42:51;;;;;;;14.80;4.80;;;27.90;72.00;;;;;;5104840;28;20028;-48
2021/04/19 12:45:20;;;;;;;20.40;5.13;;;28.00;72.20;;;;;;5104860;28;20061;-49
2021/04/19 12:47:47;;;;;;;13.98;4.43;;;28.00;72.20;;;;;;5105101;28;20020;-47
2021/04/19 12:50:14;;;;;;;15.15;4.75;;;28.00;72.20;;;;;;5103907;28;20012;-43
2021/04/19 12:52:41;;;;;;;14.18;5.05;;;28.10;72.30;;;;;;5104735;28;20323;-47
2021/04/19 12:55:08;;;;;;;13.00;4.55;;;28.10;72.30;;;;;;5104897;28;20095;-46
2021/04/19 12:57:35;;;;;;;19.88;5.00;;;28.10;72.10;;;;;;5105108;28;20331;-49
2021/04/19 13:00:02;;;;;;;13.30;4.60;;;28.20;72.10;;;;;;5105216;28;20377;-49